createdAt,value
2019-01-15T00:01:24.934Z,1.22
2019-01-15T00:03:55.704Z,1.25
2019-01-15T00:06:26.463Z,1.25
2019-01-15T00:08:57.231Z,1.26
2019-01-15T00:11:28.007Z,1.19
2019-01-15T00:13:58.780Z,1.13
2019-01-15T00:16:29.527Z,1.10
2019-01-15T00:19:00.288Z,1.20
2019-01-15T00:21:31.045Z,1.19
2019-01-15T00:24:01.815Z,1.08
2019-01-15T00:26:32.573Z,1.05
2019-01-15T00:29:03.614Z,1.03
2019-01-15T00:31:34.370Z,1.04
2019-01-15T00:34:06.097Z,1.02
2019-01-15T00:36:36.828Z,0.99
2019-01-15T00:39:07.608Z,1.00
2019-01-15T00:41:38.361Z,1.00
2019-01-15T00:44:09.132Z,0.95
2019-01-15T00:46:39.899Z,1.04
2019-01-15T00:49:10.665Z,1.07
2019-01-15T00:51:41.417Z,1.00
2019-01-15T00:54:12.185Z,1.02
2019-01-15T00:56:42.939Z,1.14
2019-01-15T00:59:13.705Z,1.10
2019-01-15T01:01:44.470Z,1.19
2019-01-15T01:04:15.231Z,1.17
2019-01-15T01:06:45.991Z,1.27
2019-01-15T01:09:17.196Z,1.24
2019-01-15T01:11:47.961Z,1.24
2019-01-15T01:14:18.742Z,1.27
2019-01-15T01:16:49.495Z,1.29
2019-01-15T01:19:20.285Z,1.35
2019-01-15T01:21:51.039Z,1.29
2019-01-15T01:24:21.821Z,1.28
2019-01-15T01:26:52.593Z,1.27
2019-01-15T01:29:23.359Z,1.33
2019-01-15T01:31:54.128Z,1.33
2019-01-15T01:34:25.151Z,1.31
2019-01-15T01:36:55.928Z,1.36
2019-01-15T01:39:26.726Z,1.34
2019-01-15T01:41:57.498Z,1.41
2019-01-15T01:44:28.255Z,1.36
2019-01-15T01:46:59.034Z,1.38
2019-01-15T01:49:29.781Z,1.45
2019-01-15T01:52:00.541Z,1.41
2019-01-15T01:54:31.308Z,1.42
2019-01-15T01:57:02.075Z,1.39
2019-01-15T01:59:32.831Z,1.33
2019-01-15T02:02:03.695Z,1.33
2019-01-15T02:04:34.465Z,1.43
2019-01-15T02:07:05.222Z,1.42
2019-01-15T02:09:35.984Z,1.42
2019-01-15T02:12:06.748Z,1.45
2019-01-15T02:14:37.507Z,1.44
2019-01-15T02:17:08.267Z,1.44
2019-01-15T02:19:39.026Z,1.47
2019-01-15T02:22:10.119Z,1.46
2019-01-15T02:24:40.888Z,1.40
2019-01-15T02:27:11.959Z,1.38
2019-01-15T02:29:42.721Z,1.39
2019-01-15T02:32:13.490Z,1.44
2019-01-15T02:34:44.253Z,1.46
2019-01-15T02:37:15.027Z,1.43
2019-01-15T02:39:45.800Z,1.43
2019-01-15T02:42:16.560Z,1.37
2019-01-15T02:44:47.313Z,1.41
2019-01-15T02:47:18.076Z,1.37
2019-01-15T02:49:48.836Z,1.41
2019-01-15T02:52:19.588Z,1.40
2019-01-15T02:54:50.355Z,1.41
2019-01-15T02:57:21.124Z,1.38
2019-01-15T02:59:51.983Z,1.38
2019-01-15T03:02:22.803Z,1.37
2019-01-15T03:04:53.575Z,1.41
2019-01-15T03:07:24.346Z,1.43
2019-01-15T03:09:55.105Z,1.40
2019-01-15T03:12:26.013Z,1.43
2019-01-15T03:14:56.727Z,1.49
2019-01-15T03:17:31.228Z,1.39
2019-01-15T03:20:05.164Z,1.40
2019-01-15T03:22:35.945Z,1.41
2019-01-15T03:25:07.910Z,1.35
2019-01-15T03:27:38.676Z,1.41
2019-01-15T03:30:13.140Z,1.40
2019-01-15T03:32:43.918Z,1.38
2019-01-15T03:35:14.670Z,1.37
2019-01-15T03:37:45.434Z,1.36
2019-01-15T03:40:18.498Z,1.36
2019-01-15T03:42:49.885Z,1.34
2019-01-15T03:45:20.644Z,1.41
2019-01-15T03:47:51.407Z,1.37
2019-01-15T03:50:22.166Z,1.36
2019-01-15T03:52:52.934Z,1.43
2019-01-15T03:55:23.700Z,1.37
2019-01-15T03:57:54.462Z,1.39
2019-01-15T04:00:25.317Z,1.38
2019-01-15T04:02:56.120Z,1.40
2019-01-15T04:05:26.845Z,1.38
2019-01-15T04:07:57.830Z,1.38
2019-01-15T04:10:28.595Z,1.39
2019-01-15T04:12:59.364Z,1.37
2019-01-15T04:15:30.117Z,1.43
2019-01-15T04:18:00.872Z,1.38
2019-01-15T04:20:31.627Z,1.36
2019-01-15T04:23:02.499Z,1.42
2019-01-15T04:25:33.253Z,1.49
2019-01-15T04:28:04.014Z,1.50
2019-01-15T04:30:34.767Z,1.50
2019-01-15T04:33:05.843Z,1.49
2019-01-15T04:35:36.618Z,1.50
2019-01-15T04:38:07.415Z,1.50
2019-01-15T04:40:38.203Z,1.13
2019-01-15T04:43:08.958Z,1.55
2019-01-15T04:45:39.727Z,1.54
2019-01-15T04:48:10.482Z,1.52
2019-01-15T04:50:41.249Z,1.52
2019-01-15T04:53:12.291Z,1.45
2019-01-15T04:55:43.055Z,1.47
2019-01-15T04:58:13.820Z,1.48
2019-01-15T05:00:44.596Z,1.49
2019-01-15T05:03:15.456Z,1.45
2019-01-15T05:05:46.222Z,1.47
2019-01-15T05:08:16.965Z,1.40
2019-01-15T05:10:47.722Z,1.46
2019-01-15T05:13:18.480Z,1.39
2019-01-15T05:15:49.249Z,1.42
2019-01-15T05:18:20.001Z,1.36
2019-01-15T05:20:50.771Z,1.33
2019-01-15T05:23:21.535Z,1.31
2019-01-15T05:25:52.706Z,1.34
2019-01-15T05:28:23.463Z,1.32
2019-01-15T05:30:54.239Z,1.42
2019-01-15T05:33:24.989Z,1.36
2019-01-15T05:35:55.781Z,1.29
2019-01-15T05:38:26.533Z,1.30
2019-01-15T05:40:57.329Z,1.30
2019-01-15T05:43:35.258Z,1.39
2019-01-15T05:46:00.850Z,1.46
2019-01-15T05:48:32.524Z,1.46
2019-01-15T05:51:07.989Z,1.47
2019-01-15T05:53:38.747Z,1.49
2019-01-15T05:56:09.711Z,1.42
2019-01-15T05:58:41.036Z,1.49
2019-01-15T06:01:11.812Z,1.42
2019-01-15T06:03:42.572Z,1.37
2019-01-15T06:06:13.349Z,1.35
2019-01-15T06:08:44.112Z,1.32
2019-01-15T06:11:14.902Z,1.43
2019-01-15T06:13:45.679Z,1.36
2019-01-15T06:16:16.465Z,1.37
2019-01-15T06:18:47.220Z,1.41
2019-01-15T06:21:18.020Z,1.43
2019-01-15T06:23:48.780Z,1.43
2019-01-15T06:26:20.767Z,1.39
2019-01-15T06:28:51.703Z,1.47
2019-01-15T06:31:22.452Z,1.44
2019-01-15T06:33:53.203Z,1.48
2019-01-15T06:36:23.971Z,1.43
2019-01-15T06:38:54.722Z,1.45
2019-01-15T06:41:25.496Z,1.41
2019-01-15T06:43:56.327Z,1.39
2019-01-15T06:46:27.102Z,1.47
2019-01-15T06:48:57.865Z,1.56
2019-01-15T06:51:28.618Z,1.54
2019-01-15T06:53:59.376Z,1.58
2019-01-15T06:56:30.141Z,1.55
2019-01-15T06:59:00.903Z,1.58
2019-01-15T07:01:31.672Z,1.53
2019-01-15T07:04:02.820Z,1.57
2019-01-15T07:06:34.102Z,1.57
2019-01-15T07:09:06.858Z,1.52
2019-01-15T07:11:37.629Z,1.51
2019-01-15T07:14:08.389Z,1.43
2019-01-15T07:16:39.152Z,1.53
2019-01-15T07:19:09.909Z,1.62
2019-01-15T07:21:41.019Z,1.52
2019-01-15T07:24:11.890Z,1.50
2019-01-15T07:26:42.587Z,1.49
2019-01-15T07:29:13.342Z,1.53
2019-01-15T07:31:44.119Z,1.53
2019-01-15T07:34:14.879Z,1.53
2019-01-15T07:36:45.670Z,1.54
2019-01-15T07:39:16.443Z,1.57
2019-01-15T07:41:47.234Z,1.58
2019-01-15T07:44:18.001Z,1.55
2019-01-15T07:46:48.766Z,1.61
2019-01-15T07:49:19.533Z,1.56
2019-01-15T07:51:50.280Z,1.59
2019-01-15T07:54:21.047Z,1.56
2019-01-15T07:56:51.798Z,1.55
2019-01-15T07:59:22.555Z,1.56
2019-01-15T08:01:53.610Z,1.58
2019-01-15T08:04:24.386Z,1.65
2019-01-15T08:06:55.138Z,1.62
2019-01-15T08:09:25.906Z,1.76
2019-01-15T08:11:56.680Z,1.78
2019-01-15T08:14:27.431Z,1.78
2019-01-15T08:16:58.194Z,1.75
2019-01-15T08:19:29.011Z,1.83
2019-01-15T08:21:59.773Z,1.85
2019-01-15T08:24:30.530Z,1.88
2019-01-15T08:27:01.299Z,1.89
2019-01-15T08:29:32.058Z,1.91
2019-01-15T08:32:03.346Z,1.90
2019-01-15T08:34:34.140Z,1.91
2019-01-15T08:37:04.873Z,1.96
2019-01-15T08:39:35.647Z,2.00
2019-01-15T08:42:06.406Z,2.04
2019-01-15T08:44:37.477Z,2.14
2019-01-15T08:47:08.238Z,2.16
2019-01-15T08:49:39.002Z,2.14
2019-01-15T08:52:09.755Z,2.08
2019-01-15T08:54:40.515Z,2.13
2019-01-15T08:57:11.269Z,2.15
2019-01-15T08:59:42.036Z,2.23
2019-01-15T09:02:12.791Z,2.35
2019-01-15T09:04:43.567Z,2.49
2019-01-15T09:07:14.321Z,2.40
2019-01-15T09:09:45.089Z,2.29
2019-01-15T09:12:15.853Z,2.37
2019-01-15T09:14:46.616Z,2.46
2019-01-15T09:17:17.381Z,2.43
2019-01-15T09:19:48.151Z,2.47
2019-01-15T09:22:18.912Z,2.54
2019-01-15T09:24:49.676Z,2.67
2019-01-15T09:27:20.437Z,2.57
2019-01-15T09:29:51.197Z,2.53
2019-01-15T09:32:21.954Z,2.70
2019-01-15T09:34:52.717Z,2.83
2019-01-15T09:37:23.770Z,3.01
2019-01-15T09:39:54.554Z,3.14
2019-01-15T09:42:25.326Z,3.11
2019-01-15T09:44:56.112Z,3.13
2019-01-15T09:47:26.859Z,3.17
2019-01-15T09:49:57.622Z,3.40
2019-01-15T09:52:28.389Z,3.17
2019-01-15T09:54:59.148Z,3.05
2019-01-15T09:57:29.903Z,2.88
2019-01-15T10:00:00.666Z,2.97
2019-01-15T10:02:31.424Z,2.97
2019-01-15T10:05:03.996Z,2.94
2019-01-15T10:07:34.763Z,3.11
2019-01-15T10:10:08.937Z,2.92
2019-01-15T10:12:39.707Z,2.91
2019-01-15T10:15:13.566Z,2.76
2019-01-15T10:17:44.425Z,2.81
2019-01-15T10:20:16.609Z,2.46
2019-01-15T10:22:47.574Z,2.76
2019-01-15T10:25:23.273Z,2.73
2019-01-15T10:27:54.837Z,2.76
2019-01-15T10:30:42.480Z,2.70
2019-01-15T10:33:25.802Z,2.72
2019-01-15T10:35:57.578Z,2.54
2019-01-15T10:38:29.253Z,2.65
2019-01-15T10:41:01.152Z,2.56
2019-01-15T10:43:32.029Z,2.65
2019-01-15T10:46:03.191Z,2.56
2019-01-15T10:48:33.955Z,2.63
2019-01-15T10:51:04.744Z,2.67
2019-01-15T10:53:35.493Z,2.59
2019-01-15T10:56:06.292Z,2.56
2019-01-15T10:58:37.046Z,2.59
2019-01-15T11:01:07.847Z,2.58
2019-01-15T11:03:38.614Z,2.56
2019-01-15T11:06:09.406Z,2.61
2019-01-15T11:08:40.235Z,2.51
2019-01-15T11:11:10.918Z,2.43
2019-01-15T11:13:41.681Z,2.39
2019-01-15T11:16:12.440Z,2.38
2019-01-15T11:18:43.205Z,2.36
2019-01-15T11:21:13.961Z,2.47
2019-01-15T11:23:44.725Z,2.43
2019-01-15T11:26:15.477Z,2.44
2019-01-15T11:28:46.550Z,2.41
2019-01-15T11:31:17.341Z,2.44
2019-01-15T11:33:48.101Z,2.55
2019-01-15T11:36:18.856Z,2.52
2019-01-15T11:38:49.624Z,2.64
2019-01-15T11:41:20.382Z,2.74
2019-01-15T11:43:51.150Z,2.78
2019-01-15T11:46:21.910Z,2.81
2019-01-15T11:48:52.852Z,2.90
2019-01-15T11:51:23.614Z,3.04
2019-01-15T11:53:54.403Z,3.07
2019-01-15T11:56:25.246Z,3.22
2019-01-15T11:58:56.407Z,2.85
2019-01-15T12:01:29.071Z,3.27
2019-01-15T12:04:18.303Z,3.31
2019-01-15T12:07:06.138Z,3.41
2019-01-15T12:09:38.798Z,3.35
2019-01-15T12:12:29.344Z,3.30
2019-01-15T12:15:02.023Z,3.29
2019-01-15T12:17:40.632Z,3.23
2019-01-15T12:20:30.277Z,3.24
2019-01-15T12:23:08.883Z,3.28
2019-01-15T12:25:41.658Z,3.24
2019-01-15T12:28:23.691Z,3.33
2019-01-15T12:31:05.456Z,3.36
2019-01-15T12:33:46.829Z,3.42
2019-01-15T12:36:28.258Z,3.41
2019-01-15T12:39:17.302Z,3.47
2019-01-15T12:41:52.769Z,3.61
2019-01-15T12:44:41.922Z,3.77
2019-01-15T12:47:17.545Z,3.67
2019-01-15T12:50:02.572Z,3.66
2019-01-15T12:52:35.227Z,3.71
2019-01-15T12:55:20.086Z,3.70
2019-01-15T12:57:55.257Z,3.83
2019-01-15T13:00:27.929Z,4.05
2019-01-15T13:03:15.446Z,4.09
2019-01-15T13:05:50.902Z,4.37
2019-01-15T13:08:23.558Z,4.51
2019-01-15T13:11:02.439Z,4.55
2019-01-15T13:13:37.650Z,4.45
2019-01-15T13:16:13.466Z,4.51
2019-01-15T13:18:49.080Z,4.29
2019-01-15T13:21:27.710Z,4.37
2019-01-15T13:24:00.399Z,4.64
2019-01-15T13:26:42.389Z,4.61
2019-01-15T13:29:20.870Z,4.77
2019-01-15T13:31:59.334Z,4.78
2019-01-15T13:34:37.785Z,4.47
2019-01-15T13:37:19.331Z,4.38
2019-01-15T13:39:57.724Z,4.22
2019-01-15T13:42:46.930Z,4.21
2019-01-15T13:45:25.601Z,4.37
2019-01-15T13:48:14.626Z,4.32
2019-01-15T13:51:05.630Z,4.47
2019-01-15T13:53:55.102Z,4.41
2019-01-15T13:56:27.762Z,4.47
2019-01-15T13:59:16.887Z,4.51
2019-01-15T14:02:01.631Z,4.52
2019-01-15T14:04:45.721Z,4.41
2019-01-15T14:07:18.357Z,4.48
2019-01-15T14:10:06.486Z,4.46
2019-01-15T14:12:39.420Z,4.39
2019-01-15T14:15:12.080Z,4.34
2019-01-15T14:18:01.201Z,4.32
2019-01-15T14:20:50.537Z,4.22
2019-01-15T14:23:32.204Z,4.16
2019-01-15T14:26:07.650Z,4.21
2019-01-15T14:28:57.285Z,4.15
2019-01-15T14:31:45.072Z,4.13
2019-01-15T14:34:23.749Z,4.11
2019-01-15T14:37:05.230Z,4.20
2019-01-15T14:39:37.955Z,4.13
2019-01-15T14:42:19.448Z,4.09
2019-01-15T14:45:04.049Z,4.03
2019-01-15T14:47:39.490Z,3.95
2019-01-15T14:50:29.142Z,3.96
2019-01-15T14:53:18.592Z,3.93
2019-01-15T14:56:07.957Z,3.92
2019-01-15T14:58:57.173Z,3.92
2019-01-15T15:01:29.835Z,3.93
2019-01-15T15:04:02.512Z,3.99
2019-01-15T15:06:51.669Z,4.05
2019-01-15T15:09:27.241Z,3.91
2019-01-15T15:12:05.875Z,3.89
2019-01-15T15:14:50.928Z,3.90
2019-01-15T15:17:29.404Z,3.93
2019-01-15T15:20:02.087Z,3.92
2019-01-15T15:22:51.390Z,3.90
2019-01-15T15:25:24.074Z,3.85
2019-01-15T15:27:56.745Z,3.84
2019-01-15T15:30:46.207Z,3.82
2019-01-15T15:33:18.872Z,3.85
2019-01-15T15:36:03.614Z,3.87
2019-01-15T15:38:45.300Z,3.87
2019-01-15T15:41:18.003Z,3.84
2019-01-15T15:43:53.528Z,3.83
2019-01-15T15:46:26.205Z,3.81
2019-01-15T15:49:07.631Z,3.83
2019-01-15T15:51:46.114Z,3.83
2019-01-15T15:54:24.382Z,3.79
2019-01-15T15:57:02.647Z,3.79
2019-01-15T15:59:35.547Z,3.75
2019-01-15T16:02:11.080Z,3.74
2019-01-15T16:05:01.942Z,3.69
2019-01-15T16:07:53.234Z,3.72
2019-01-15T16:10:28.743Z,3.70
2019-01-15T16:13:07.499Z,3.78
2019-01-15T16:15:42.718Z,3.81
2019-01-15T16:18:15.492Z,3.73
2019-01-15T16:23:58.074Z,3.72
2019-01-15T16:26:33.278Z,3.75
2019-01-15T16:29:13.057Z,3.74
2019-01-15T16:31:49.082Z,3.74
2019-01-15T16:34:24.690Z,3.70
2019-01-15T16:36:57.334Z,3.69
2019-01-15T16:39:38.799Z,3.71
2019-01-15T16:42:26.703Z,3.71
2019-01-15T16:45:02.315Z,3.72
2019-01-15T16:47:37.474Z,3.76
2019-01-15T16:50:27.325Z,3.77
2019-01-15T16:53:05.877Z,3.79
2019-01-15T16:55:44.334Z,3.80
2019-01-15T16:58:23.277Z,3.76
2019-01-15T17:01:15.771Z,3.75
2019-01-15T17:03:51.469Z,3.79
2019-01-15T17:06:40.942Z,3.78
2019-01-15T17:09:16.389Z,3.78
2019-01-15T17:11:55.930Z,3.74
2019-01-15T17:14:35.317Z,3.77
2019-01-15T17:17:26.947Z,3.75
2019-01-15T17:19:59.670Z,3.75
2019-01-15T17:22:34.991Z,3.71
2019-01-15T17:25:17.211Z,3.78
2019-01-15T17:27:49.885Z,3.75
2019-01-15T17:30:28.799Z,3.78
2019-01-15T17:33:19.858Z,3.72
2019-01-15T17:36:09.237Z,3.75
2019-01-15T17:38:50.230Z,3.68
2019-01-15T17:41:22.916Z,3.69
2019-01-15T17:44:01.566Z,3.76
2019-01-15T17:46:40.967Z,3.75
2019-01-15T17:49:32.321Z,3.76
2019-01-15T17:52:21.653Z,3.75
2019-01-15T17:54:54.338Z,3.77
2019-01-15T17:57:43.637Z,3.72
2019-01-15T18:00:34.452Z,3.66
2019-01-15T18:03:16.408Z,3.76
2019-01-15T18:05:51.952Z,3.71
2019-01-15T18:08:30.292Z,3.73
2019-01-15T18:11:08.518Z,3.72
2019-01-15T18:13:57.635Z,3.75
2019-01-15T18:16:36.161Z,3.68
2019-01-15T18:19:26.704Z,3.76
2019-01-15T18:22:15.764Z,3.77
2019-01-15T18:24:57.543Z,3.75
2019-01-15T18:27:42.030Z,3.72
2019-01-15T18:30:33.343Z,3.72
2019-01-15T18:33:12.342Z,3.74
2019-01-15T18:35:53.684Z,3.67
2019-01-15T18:38:29.188Z,3.77
2019-01-15T18:41:01.898Z,3.76
2019-01-15T18:43:34.558Z,3.75
2019-01-15T18:46:10.095Z,3.76
2019-01-15T18:48:45.619Z,3.74
2019-01-15T18:51:20.769Z,3.73
2019-01-15T18:54:02.432Z,3.74
2019-01-15T18:56:52.100Z,3.72
2019-01-15T18:59:30.724Z,3.68
2019-01-15T19:02:03.583Z,3.68
2019-01-15T19:04:36.264Z,3.69
2019-01-15T19:07:09.071Z,3.70
2019-01-15T19:09:58.054Z,3.64
2019-01-15T19:12:30.725Z,3.74
2019-01-15T19:15:19.992Z,3.75
2019-01-15T19:18:09.421Z,3.67
2019-01-15T19:20:45.349Z,3.69
2019-01-15T19:23:33.175Z,3.70
2019-01-15T19:26:05.836Z,3.71
2019-01-15T19:28:41.542Z,3.74
2019-01-15T19:31:30.635Z,3.68
2019-01-15T19:34:06.306Z,3.60
2019-01-15T19:36:56.119Z,3.75
2019-01-15T19:39:31.304Z,3.74
2019-01-15T19:42:12.755Z,3.69
2019-01-15T19:44:54.446Z,3.72
2019-01-15T19:47:29.863Z,3.78
2019-01-15T19:50:18.980Z,3.68
2019-01-15T19:52:54.432Z,3.74
2019-01-15T19:55:39.070Z,3.74
2019-01-15T19:58:29.947Z,3.79
2019-01-15T20:01:17.969Z,3.70
2019-01-15T20:03:50.934Z,3.81
2019-01-15T20:06:26.663Z,3.77
2019-01-15T20:08:59.355Z,3.73
2019-01-15T20:11:48.778Z,3.75
2019-01-15T20:14:37.871Z,3.78
2019-01-15T20:17:10.527Z,3.76
2019-01-15T20:20:01.099Z,3.76
2019-01-15T20:22:33.765Z,3.78
2019-01-15T20:25:23.169Z,3.76
2019-01-15T20:28:12.985Z,3.70
2019-01-15T20:30:48.409Z,3.76
2019-01-15T20:33:39.016Z,3.79
2019-01-15T20:36:14.483Z,3.75
2019-01-15T20:38:47.163Z,3.68
2019-01-15T20:41:25.699Z,3.69
2019-01-15T20:44:06.977Z,3.67
2019-01-15T20:46:39.702Z,3.74
2019-01-15T20:49:14.885Z,3.77
2019-01-15T20:51:53.375Z,3.82
2019-01-15T20:54:26.060Z,3.73
2019-01-15T20:56:58.753Z,3.68
2019-01-15T20:59:31.452Z,3.70
2019-01-15T21:02:07.174Z,3.83
2019-01-15T21:04:43.051Z,3.76
2019-01-15T21:07:32.434Z,3.74
2019-01-15T21:10:17.557Z,3.78
2019-01-15T21:12:53.313Z,3.71
2019-01-15T21:15:28.998Z,3.77
2019-01-15T21:18:18.134Z,3.83
2019-01-15T21:20:56.748Z,3.73
2019-01-15T21:23:38.253Z,3.71
2019-01-15T21:26:11.123Z,3.72
2019-01-15T21:28:52.810Z,3.67
2019-01-15T21:31:37.369Z,3.72
2019-01-15T21:34:21.971Z,3.71
2019-01-15T21:37:12.804Z,3.75
2019-01-15T21:39:45.490Z,3.76
2019-01-15T21:42:20.967Z,3.84
2019-01-15T21:45:10.300Z,3.78
2019-01-15T21:47:45.744Z,3.79
2019-01-15T21:50:27.305Z,3.80
2019-01-15T21:53:03.016Z,3.78
2019-01-15T21:55:41.733Z,3.76
2019-01-15T21:58:14.430Z,3.82
2019-01-15T22:00:47.121Z,3.77
2019-01-15T22:03:19.854Z,3.80
2019-01-15T22:05:52.539Z,3.81
2019-01-15T22:08:27.988Z,3.87
2019-01-15T22:11:06.860Z,3.83
2019-01-15T22:13:51.611Z,3.84
2019-01-15T22:16:24.297Z,3.91
2019-01-15T22:19:15.140Z,3.82
2019-01-15T22:21:47.839Z,3.80
2019-01-15T22:24:29.364Z,3.91
2019-01-15T22:27:05.134Z,3.87
2019-01-15T22:29:40.357Z,3.85
2019-01-15T22:32:29.795Z,3.78
2019-01-15T22:35:11.544Z,3.80
2019-01-15T22:38:02.653Z,3.82
2019-01-15T22:40:37.902Z,3.80
2019-01-15T22:43:13.139Z,3.78
2019-01-15T22:45:48.403Z,3.79
2019-01-15T22:48:23.976Z,3.81
2019-01-15T22:50:59.572Z,3.86
2019-01-15T22:53:38.179Z,3.91
2019-01-15T22:56:10.858Z,3.87
2019-01-15T22:58:49.606Z,3.84
2019-01-15T23:01:26.034Z,3.86
2019-01-15T23:04:13.869Z,3.86
2019-01-15T23:06:49.664Z,3.80
2019-01-15T23:09:28.099Z,3.84
2019-01-15T23:12:17.508Z,3.88
2019-01-15T23:14:56.464Z,3.76
2019-01-15T23:17:45.772Z,3.82
2019-01-15T23:20:18.470Z,3.78
2019-01-15T23:23:08.995Z,3.76
2019-01-15T23:25:47.769Z,3.77
2019-01-15T23:28:26.321Z,3.78
2019-01-15T23:31:04.700Z,3.80
2019-01-15T23:33:46.734Z,3.78
2019-01-15T23:36:19.420Z,3.83
2019-01-15T23:38:54.701Z,3.78
2019-01-15T23:41:30.364Z,3.80
2019-01-15T23:44:09.074Z,3.80
2019-01-15T23:46:41.767Z,3.73
2019-01-15T23:49:20.666Z,3.75
2019-01-15T23:51:53.368Z,3.76
2019-01-15T23:54:41.211Z,3.81
2019-01-15T23:57:30.517Z,3.73
